Wecota, South Dakota
Current Conditions -  °F | °C
As of 7:53 AM on Monday 24 Nov 2014 (Local Time) from KABR Reporting Station
Scattered Clouds Scattered Clouds  
Wind Chill: -2°   Ceiling: Unl
Heat Index: 15°   Visibility: 10mi
Dew Point:   Wind: 21mph
Humidity: 74%   Direction: 340°NNW
Pressure: 29.73"   Gusts: 29mph
Location:  45.0672°N, 99.0996°W
Report Text: KABR 241353Z AUTO 34018G25KT 10SM SCT019 M09/M13 A2973 RMK AO2 PK WND 33030/1310 SNB00E40 SLP089 P0000 T10941133
Loading
Personal Weather Stations






























Interactive Weather Map New forecast layout! Learn more

10-Day Weather Forecast

Advertisements
Track Severe Weather on mobile